Alden, Illinois
Current Conditions -  °F | °C
As of 1:15 PM on Monday 22 Dec 2014 (Local Time) from KBUU Reporting Station
Unknown Precip Unknown Precip  
Wind Chill: 27°   Ceiling: 700
Heat Index: 33°   Visibility: 2.5mi
Dew Point: 32°   Wind: 7mph
Humidity: 96%   Direction: 90°E
Pressure: 29.75"   Gusts: NA
Location:  42.46°N, 88.52°W
Report Text: KBUU 221915Z AUTO 09006KT 2 1/2SM UP BKN007 OVC011 01/00 A2975 RMK AO2 T00060000
Loading
Personal Weather Stations






























Interactive Weather Map New forecast layout! Learn more

10-Day Weather Forecast

Advertisements
Track Severe Weather on mobile